sensor_id;sensor_type;location;lat;lon;timestamp;P1;durP1;ratioP1;P2;durP2;ratioP2
41837;SDS011;27511;52.042;5.178;2022-07-06T00:00:34;1.92;;;1.00;;
41837;SDS011;27511;52.042;5.178;2022-07-06T00:03:00;3.13;;;1.75;;
41837;SDS011;27511;52.042;5.178;2022-07-06T00:05:25;1.92;;;0.95;;
41837;SDS011;27511;52.042;5.178;2022-07-06T00:07:51;1.60;;;1.00;;
41837;SDS011;27511;52.042;5.178;2022-07-06T00:10:16;1.83;;;1.17;;
41837;SDS011;27511;52.042;5.178;2022-07-06T00:12:42;1.67;;;1.35;;
41837;SDS011;27511;52.042;5.178;2022-07-06T00:15:07;0.90;;;0.88;;
41837;SDS011;27511;52.042;5.178;2022-07-06T00:17:33;3.08;;;1.20;;
41837;SDS011;27511;52.042;5.178;2022-07-06T00:19:59;3.65;;;1.08;;
41837;SDS011;27511;52.042;5.178;2022-07-06T00:22:24;3.97;;;1.20;;
41837;SDS011;27511;52.042;5.178;2022-07-06T00:24:50;4.15;;;1.23;;
41837;SDS011;27511;52.042;5.178;2022-07-06T00:27:16;1.35;;;1.20;;
41837;SDS011;27511;52.042;5.178;2022-07-06T00:29:42;1.52;;;0.73;;
41837;SDS011;27511;52.042;5.178;2022-07-06T00:32:09;4.30;;;1.50;;
41837;SDS011;27511;52.042;5.178;2022-07-06T00:34:36;1.55;;;1.10;;
41837;SDS011;27511;52.042;5.178;2022-07-06T00:37:04;3.00;;;1.17;;
41837;SDS011;27511;52.042;5.178;2022-07-06T00:39:30;3.13;;;1.17;;
41837;SDS011;27511;52.042;5.178;2022-07-06T00:41:56;2.67;;;1.10;;
41837;SDS011;27511;52.042;5.178;2022-07-06T00:44:22;2.25;;;1.13;;
41837;SDS011;27511;52.042;5.178;2022-07-06T00:46:47;1.33;;;1.00;;
41837;SDS011;27511;52.042;5.178;2022-07-06T00:49:13;1.73;;;1.20;;
41837;SDS011;27511;52.042;5.178;2022-07-06T00:51:57;1.55;;;1.13;;
41837;SDS011;27511;52.042;5.178;2022-07-06T00:54:24;1.75;;;1.27;;
41837;SDS011;27511;52.042;5.178;2022-07-06T00:56:51;1.23;;;1.02;;
41837;SDS011;27511;52.042;5.178;2022-07-06T00:59:16;1.40;;;1.10;;
41837;SDS011;27511;52.042;5.178;2022-07-06T01:01:42;2.78;;;0.95;;
41837;SDS011;27511;52.042;5.178;2022-07-06T01:04:08;1.45;;;1.10;;
41837;SDS011;27511;52.042;5.178;2022-07-06T01:06:33;1.50;;;1.05;;
41837;SDS011;27511;52.042;5.178;2022-07-06T01:08:59;1.85;;;1.20;;
41837;SDS011;27511;52.042;5.178;2022-07-06T01:11:25;2.92;;;1.27;;
41837;SDS011;27511;52.042;5.178;2022-07-06T01:13:51;5.85;;;1.02;;
41837;SDS011;27511;52.042;5.178;2022-07-06T01:16:17;3.17;;;1.52;;
41837;SDS011;27511;52.042;5.178;2022-07-06T01:18:43;2.47;;;1.20;;
41837;SDS011;27511;52.042;5.178;2022-07-06T01:21:09;2.35;;;1.20;;
41837;SDS011;27511;52.042;5.178;2022-07-06T01:23:40;3.45;;;1.00;;
41837;SDS011;27511;52.042;5.178;2022-07-06T01:26:08;1.83;;;1.25;;
41837;SDS011;27511;52.042;5.178;2022-07-06T01:28:35;4.00;;;1.33;;
41837;SDS011;27511;52.042;5.178;2022-07-06T01:31:00;1.73;;;1.02;;
41837;SDS011;27511;52.042;5.178;2022-07-06T01:33:26;1.23;;;1.10;;
41837;SDS011;27511;52.042;5.178;2022-07-06T01:35:51;2.65;;;1.17;;
41837;SDS011;27511;52.042;5.178;2022-07-06T01:38:17;3.58;;;1.15;;
41837;SDS011;27511;52.042;5.178;2022-07-06T01:40:43;1.50;;;0.95;;
41837;SDS011;27511;52.042;5.178;2022-07-06T01:43:08;1.63;;;1.27;;
41837;SDS011;27511;52.042;5.178;2022-07-06T01:45:34;0.95;;;0.82;;
41837;SDS011;27511;52.042;5.178;2022-07-06T01:47:59;1.85;;;1.00;;
41837;SDS011;27511;52.042;5.178;2022-07-06T01:50:25;1.25;;;0.93;;
41837;SDS011;27511;52.042;5.178;2022-07-06T01:52:50;1.08;;;0.90;;
41837;SDS011;27511;52.042;5.178;2022-07-06T01:55:16;3.17;;;1.30;;
41837;SDS011;27511;52.042;5.178;2022-07-06T01:57:41;1.40;;;1.02;;
41837;SDS011;27511;52.042;5.178;2022-07-06T02:00:07;1.80;;;1.10;;
41837;SDS011;27511;52.042;5.178;2022-07-06T02:02:33;1.42;;;1.23;;
41837;SDS011;27511;52.042;5.178;2022-07-06T02:04:59;1.55;;;1.10;;
41837;SDS011;27511;52.042;5.178;2022-07-06T02:07:24;2.65;;;1.17;;
41837;SDS011;27511;52.042;5.178;2022-07-06T02:09:50;2.05;;;1.20;;
41837;SDS011;27511;52.042;5.178;2022-07-06T02:12:15;2.33;;;1.25;;
41837;SDS011;27511;52.042;5.178;2022-07-06T02:14:41;1.75;;;1.58;;
41837;SDS011;27511;52.042;5.178;2022-07-06T02:17:07;1.88;;;1.33;;
41837;SDS011;27511;52.042;5.178;2022-07-06T02:19:32;3.40;;;1.17;;
41837;SDS011;27511;52.042;5.178;2022-07-06T02:21:58;3.47;;;1.55;;
41837;SDS011;27511;52.042;5.178;2022-07-06T02:24:23;1.60;;;1.50;;
41837;SDS011;27511;52.042;5.178;2022-07-06T02:26:49;1.70;;;1.40;;
41837;SDS011;27511;52.042;5.178;2022-07-06T02:29:14;2.88;;;1.88;;
41837;SDS011;27511;52.042;5.178;2022-07-06T02:31:40;2.72;;;1.30;;
41837;SDS011;27511;52.042;5.178;2022-07-06T02:34:05;4.80;;;1.20;;
41837;SDS011;27511;52.042;5.178;2022-07-06T02:36:31;3.58;;;1.10;;
41837;SDS011;27511;52.042;5.178;2022-07-06T02:38:56;3.50;;;0.95;;
41837;SDS011;27511;52.042;5.178;2022-07-06T02:41:22;1.50;;;1.00;;
41837;SDS011;27511;52.042;5.178;2022-07-06T02:43:47;1.85;;;0.95;;
41837;SDS011;27511;52.042;5.178;2022-07-06T02:46:13;1.13;;;1.00;;
41837;SDS011;27511;52.042;5.178;2022-07-06T02:48:38;2.40;;;1.25;;
41837;SDS011;27511;52.042;5.178;2022-07-06T02:51:04;4.18;;;1.35;;
41837;SDS011;27511;52.042;5.178;2022-07-06T02:53:29;1.60;;;1.20;;
41837;SDS011;27511;52.042;5.178;2022-07-06T02:55:55;2.58;;;1.13;;
41837;SDS011;27511;52.042;5.178;2022-07-06T02:58:20;1.85;;;0.88;;
41837;SDS011;27511;52.042;5.178;2022-07-06T03:00:46;3.97;;;1.23;;
41837;SDS011;27511;52.042;5.178;2022-07-06T03:03:11;1.88;;;1.05;;
41837;SDS011;27511;52.042;5.178;2022-07-06T03:05:37;1.92;;;1.30;;
41837;SDS011;27511;52.042;5.178;2022-07-06T03:08:02;2.55;;;1.20;;
41837;SDS011;27511;52.042;5.178;2022-07-06T03:10:28;2.10;;;1.23;;
41837;SDS011;27511;52.042;5.178;2022-07-06T03:12:54;1.80;;;1.20;;
41837;SDS011;27511;52.042;5.178;2022-07-06T03:15:19;2.58;;;0.90;;
41837;SDS011;27511;52.042;5.178;2022-07-06T03:17:45;4.00;;;1.40;;
41837;SDS011;27511;52.042;5.178;2022-07-06T03:20:10;2.83;;;0.98;;
41837;SDS011;27511;52.042;5.178;2022-07-06T03:22:36;2.78;;;1.20;;
41837;SDS011;27511;52.042;5.178;2022-07-06T03:25:02;2.10;;;1.13;;
41837;SDS011;27511;52.042;5.178;2022-07-06T03:27:27;2.42;;;1.10;;
41837;SDS011;27511;52.042;5.178;2022-07-06T03:29:53;1.13;;;0.90;;
41837;SDS011;27511;52.042;5.178;2022-07-06T03:32:18;1.92;;;0.90;;
41837;SDS011;27511;52.042;5.178;2022-07-06T03:34:44;5.50;;;1.10;;
41837;SDS011;27511;52.042;5.178;2022-07-06T03:37:09;1.02;;;0.85;;
41837;SDS011;27511;52.042;5.178;2022-07-06T03:39:35;1.55;;;1.30;;
41837;SDS011;27511;52.042;5.178;2022-07-06T03:42:00;4.68;;;1.10;;
41837;SDS011;27511;52.042;5.178;2022-07-06T03:44:26;1.63;;;1.00;;
41837;SDS011;27511;52.042;5.178;2022-07-06T03:46:51;2.88;;;1.15;;
41837;SDS011;27511;52.042;5.178;2022-07-06T03:49:20;1.90;;;1.05;;
41837;SDS011;27511;52.042;5.178;2022-07-06T03:51:46;3.20;;;0.98;;
41837;SDS011;27511;52.042;5.178;2022-07-06T03:54:11;4.35;;;1.13;;
41837;SDS011;27511;52.042;5.178;2022-07-06T03:56:37;2.47;;;1.10;;
41837;SDS011;27511;52.042;5.178;2022-07-06T03:59:03;2.13;;;1.20;;
41837;SDS011;27511;52.042;5.178;2022-07-06T04:01:29;1.25;;;0.90;;
41837;SDS011;27511;52.042;5.178;2022-07-06T04:03:55;1.30;;;1.02;;
41837;SDS011;27511;52.042;5.178;2022-07-06T04:06:20;2.20;;;0.75;;
41837;SDS011;27511;52.042;5.178;2022-07-06T04:08:47;2.17;;;1.00;;
41837;SDS011;27511;52.042;5.178;2022-07-06T04:11:12;2.75;;;1.08;;
41837;SDS011;27511;52.042;5.178;2022-07-06T04:13:38;0.80;;;0.80;;
41837;SDS011;27511;52.042;5.178;2022-07-06T04:16:04;2.15;;;0.98;;
41837;SDS011;27511;52.042;5.178;2022-07-06T04:18:30;1.35;;;0.95;;
41837;SDS011;27511;52.042;5.178;2022-07-06T04:20:56;3.50;;;1.00;;
41837;SDS011;27511;52.042;5.178;2022-07-06T04:23:24;1.25;;;0.90;;
41837;SDS011;27511;52.042;5.178;2022-07-06T04:25:50;4.90;;;1.30;;
41837;SDS011;27511;52.042;5.178;2022-07-06T04:28:16;1.35;;;0.68;;
41837;SDS011;27511;52.042;5.178;2022-07-06T04:30:42;3.13;;;0.90;;
41837;SDS011;27511;52.042;5.178;2022-07-06T04:33:07;1.83;;;0.85;;
41837;SDS011;27511;52.042;5.178;2022-07-06T04:35:33;0.93;;;0.80;;
41837;SDS011;27511;52.042;5.178;2022-07-06T04:37:59;2.50;;;1.00;;
41837;SDS011;27511;52.042;5.178;2022-07-06T04:40:24;1.20;;;0.90;;
41837;SDS011;27511;52.042;5.178;2022-07-06T04:42:50;1.67;;;0.88;;
41837;SDS011;27511;52.042;5.178;2022-07-06T04:45:15;1.50;;;1.00;;
41837;SDS011;27511;52.042;5.178;2022-07-06T04:47:41;1.35;;;0.80;;
41837;SDS011;27511;52.042;5.178;2022-07-06T04:50:09;1.20;;;0.90;;
41837;SDS011;27511;52.042;5.178;2022-07-06T04:52:34;3.42;;;0.98;;
41837;SDS011;27511;52.042;5.178;2022-07-06T04:55:00;2.03;;;1.73;;
41837;SDS011;27511;52.042;5.178;2022-07-06T04:57:26;1.73;;;0.98;;
41837;SDS011;27511;52.042;5.178;2022-07-06T04:59:54;2.75;;;1.00;;
41837;SDS011;27511;52.042;5.178;2022-07-06T05:02:20;3.15;;;1.30;;
41837;SDS011;27511;52.042;5.178;2022-07-06T05:04:45;2.05;;;0.80;;
41837;SDS011;27511;52.042;5.178;2022-07-06T05:07:11;0.82;;;0.80;;
41837;SDS011;27511;52.042;5.178;2022-07-06T05:09:36;4.05;;;1.00;;
41837;SDS011;27511;52.042;5.178;2022-07-06T05:12:02;2.00;;;0.80;;
41837;SDS011;27511;52.042;5.178;2022-07-06T05:14:27;1.45;;;0.93;;
41837;SDS011;27511;52.042;5.178;2022-07-06T05:16:53;3.38;;;1.00;;
41837;SDS011;27511;52.042;5.178;2022-07-06T05:19:18;1.85;;;1.10;;
41837;SDS011;27511;52.042;5.178;2022-07-06T05:21:44;0.95;;;0.80;;
41837;SDS011;27511;52.042;5.178;2022-07-06T05:24:09;2.10;;;1.10;;
41837;SDS011;27511;52.042;5.178;2022-07-06T05:26:35;3.15;;;1.10;;
41837;SDS011;27511;52.042;5.178;2022-07-06T05:29:00;1.90;;;0.93;;
41837;SDS011;27511;52.042;5.178;2022-07-06T05:31:26;2.67;;;1.00;;
41837;SDS011;27511;52.042;5.178;2022-07-06T05:33:51;3.75;;;1.23;;
41837;SDS011;27511;52.042;5.178;2022-07-06T05:36:17;1.10;;;0.90;;
41837;SDS011;27511;52.042;5.178;2022-07-06T05:38:43;2.22;;;1.60;;
41837;SDS011;27511;52.042;5.178;2022-07-06T05:41:09;3.67;;;1.20;;
41837;SDS011;27511;52.042;5.178;2022-07-06T05:43:37;2.60;;;1.20;;
41837;SDS011;27511;52.042;5.178;2022-07-06T05:46:03;1.25;;;1.13;;
41837;SDS011;27511;52.042;5.178;2022-07-06T05:48:29;1.02;;;0.90;;
41837;SDS011;27511;52.042;5.178;2022-07-06T05:51:13;1.05;;;0.73;;
41837;SDS011;27511;52.042;5.178;2022-07-06T05:53:39;1.58;;;1.00;;
41837;SDS011;27511;52.042;5.178;2022-07-06T05:56:04;1.85;;;0.98;;
41837;SDS011;27511;52.042;5.178;2022-07-06T05:58:30;2.03;;;0.70;;
41837;SDS011;27511;52.042;5.178;2022-07-06T06:00:55;1.58;;;0.60;;
41837;SDS011;27511;52.042;5.178;2022-07-06T06:03:21;2.28;;;0.90;;
41837;SDS011;27511;52.042;5.178;2022-07-06T06:05:47;1.38;;;1.05;;
41837;SDS011;27511;52.042;5.178;2022-07-06T06:08:13;3.95;;;1.00;;
41837;SDS011;27511;52.042;5.178;2022-07-06T06:10:38;2.22;;;0.73;;
41837;SDS011;27511;52.042;5.178;2022-07-06T06:13:04;3.00;;;0.70;;
41837;SDS011;27511;52.042;5.178;2022-07-06T06:15:30;2.22;;;1.00;;
41837;SDS011;27511;52.042;5.178;2022-07-06T06:17:55;2.05;;;0.65;;
41837;SDS011;27511;52.042;5.178;2022-07-06T06:20:21;3.20;;;0.80;;
41837;SDS011;27511;52.042;5.178;2022-07-06T06:22:50;2.60;;;0.68;;
41837;SDS011;27511;52.042;5.178;2022-07-06T06:25:18;4.65;;;0.88;;
41837;SDS011;27511;52.042;5.178;2022-07-06T06:28:01;0.80;;;0.70;;
41837;SDS011;27511;52.042;5.178;2022-07-06T06:30:28;2.97;;;0.90;;
41837;SDS011;27511;52.042;5.178;2022-07-06T06:35:44;3.13;;;0.80;;
41837;SDS011;27511;52.042;5.178;2022-07-06T06:38:17;2.47;;;0.93;;
41837;SDS011;27511;52.042;5.178;2022-07-06T06:40:43;1.80;;;0.75;;
41837;SDS011;27511;52.042;5.178;2022-07-06T06:43:09;1.02;;;0.65;;
41837;SDS011;27511;52.042;5.178;2022-07-06T06:45:35;1.92;;;0.70;;
41837;SDS011;27511;52.042;5.178;2022-07-06T06:48:00;2.97;;;0.60;;
41837;SDS011;27511;52.042;5.178;2022-07-06T06:50:26;3.60;;;0.80;;
41837;SDS011;27511;52.042;5.178;2022-07-06T06:52:52;2.13;;;0.60;;
41837;SDS011;27511;52.042;5.178;2022-07-06T06:55:18;1.48;;;0.50;;
41837;SDS011;27511;52.042;5.178;2022-07-06T06:57:44;1.45;;;0.60;;
41837;SDS011;27511;52.042;5.178;2022-07-06T07:00:10;4.35;;;0.88;;
41837;SDS011;27511;52.042;5.178;2022-07-06T07:02:36;0.77;;;0.35;;
41837;SDS011;27511;52.042;5.178;2022-07-06T07:05:02;2.50;;;0.60;;
41837;SDS011;27511;52.042;5.178;2022-07-06T07:07:28;1.50;;;0.65;;
41837;SDS011;27511;52.042;5.178;2022-07-06T07:09:54;1.40;;;0.80;;
41837;SDS011;27511;52.042;5.178;2022-07-06T07:12:19;0.93;;;0.65;;
41837;SDS011;27511;52.042;5.178;2022-07-06T07:14:45;2.20;;;0.77;;
41837;SDS011;27511;52.042;5.178;2022-07-06T07:17:10;4.03;;;0.82;;
41837;SDS011;27511;52.042;5.178;2022-07-06T07:19:36;1.35;;;0.47;;
41837;SDS011;27511;52.042;5.178;2022-07-06T07:22:02;2.05;;;0.70;;
41837;SDS011;27511;52.042;5.178;2022-07-06T07:24:28;0.88;;;0.50;;
41837;SDS011;27511;52.042;5.178;2022-07-06T07:26:53;2.38;;;0.57;;
41837;SDS011;27511;52.042;5.178;2022-07-06T07:29:19;2.33;;;0.63;;
41837;SDS011;27511;52.042;5.178;2022-07-06T07:31:44;1.20;;;0.50;;
41837;SDS011;27511;52.042;5.178;2022-07-06T07:34:10;1.85;;;0.60;;
41837;SDS011;27511;52.042;5.178;2022-07-06T07:36:36;0.93;;;0.50;;
41837;SDS011;27511;52.042;5.178;2022-07-06T07:39:01;0.85;;;0.47;;
41837;SDS011;27511;52.042;5.178;2022-07-06T07:41:27;0.47;;;0.32;;
41837;SDS011;27511;52.042;5.178;2022-07-06T07:43:53;1.27;;;0.50;;
41837;SDS011;27511;52.042;5.178;2022-07-06T07:46:19;0.60;;;0.52;;
41837;SDS011;27511;52.042;5.178;2022-07-06T07:48:44;1.23;;;0.60;;
41837;SDS011;27511;52.042;5.178;2022-07-06T07:51:10;1.88;;;0.63;;
41837;SDS011;27511;52.042;5.178;2022-07-06T07:53:35;1.63;;;0.57;;
41837;SDS011;27511;52.042;5.178;2022-07-06T07:56:01;1.80;;;0.60;;
41837;SDS011;27511;52.042;5.178;2022-07-06T07:58:26;0.60;;;0.45;;
41837;SDS011;27511;52.042;5.178;2022-07-06T08:00:52;0.40;;;0.40;;
41837;SDS011;27511;52.042;5.178;2022-07-06T08:03:18;1.10;;;0.38;;
41837;SDS011;27511;52.042;5.178;2022-07-06T08:05:43;0.65;;;0.50;;
41837;SDS011;27511;52.042;5.178;2022-07-06T08:08:09;1.15;;;0.45;;
41837;SDS011;27511;52.042;5.178;2022-07-06T08:10:34;0.47;;;0.30;;
41837;SDS011;27511;52.042;5.178;2022-07-06T08:13:00;2.00;;;0.40;;
41837;SDS011;27511;52.042;5.178;2022-07-06T08:15:25;0.77;;;0.40;;
41837;SDS011;27511;52.042;5.178;2022-07-06T08:17:51;1.23;;;0.43;;
41837;SDS011;27511;52.042;5.178;2022-07-06T08:20:16;0.30;;;0.30;;
41837;SDS011;27511;52.042;5.178;2022-07-06T08:22:42;0.30;;;0.22;;
41837;SDS011;27511;52.042;5.178;2022-07-06T08:25:08;1.05;;;0.95;;
41837;SDS011;27511;52.042;5.178;2022-07-06T08:27:34;0.98;;;0.50;;
41837;SDS011;27511;52.042;5.178;2022-07-06T08:30:00;1.20;;;0.52;;
41837;SDS011;27511;52.042;5.178;2022-07-06T08:32:26;0.88;;;0.20;;
41837;SDS011;27511;52.042;5.178;2022-07-06T08:34:52;1.15;;;0.40;;
41837;SDS011;27511;52.042;5.178;2022-07-06T08:37:18;1.23;;;0.45;;
41837;SDS011;27511;52.042;5.178;2022-07-06T08:39:44;0.43;;;0.30;;
41837;SDS011;27511;52.042;5.178;2022-07-06T08:42:10;1.38;;;0.28;;
41837;SDS011;27511;52.042;5.178;2022-07-06T08:44:36;0.73;;;0.30;;
41837;SDS011;27511;52.042;5.178;2022-07-06T08:47:02;0.30;;;0.30;;
41837;SDS011;27511;52.042;5.178;2022-07-06T08:49:31;0.73;;;0.30;;
41837;SDS011;27511;52.042;5.178;2022-07-06T08:51:58;0.90;;;0.30;;
41837;SDS011;27511;52.042;5.178;2022-07-06T08:54:24;1.45;;;0.40;;
41837;SDS011;27511;52.042;5.178;2022-07-06T08:56:51;1.13;;;0.40;;
41837;SDS011;27511;52.042;5.178;2022-07-06T08:59:17;0.30;;;0.30;;
41837;SDS011;27511;52.042;5.178;2022-07-06T09:01:44;0.38;;;0.20;;
41837;SDS011;27511;52.042;5.178;2022-07-06T09:04:11;0.40;;;0.30;;
41837;SDS011;27511;52.042;5.178;2022-07-06T09:06:38;0.90;;;0.50;;
41837;SDS011;27511;52.042;5.178;2022-07-06T09:09:07;1.95;;;0.52;;
41837;SDS011;27511;52.042;5.178;2022-07-06T09:11:34;0.63;;;0.40;;
41837;SDS011;27511;52.042;5.178;2022-07-06T09:14:02;0.40;;;0.30;;
41837;SDS011;27511;52.042;5.178;2022-07-06T09:16:29;1.10;;;0.20;;
41837;SDS011;27511;52.042;5.178;2022-07-06T09:18:55;0.50;;;0.50;;
41837;SDS011;27511;52.042;5.178;2022-07-06T09:21:24;1.52;;;0.43;;
41837;SDS011;27511;52.042;5.178;2022-07-06T09:23:55;1.58;;;0.70;;
41837;SDS011;27511;52.042;5.178;2022-07-06T09:26:27;0.40;;;0.30;;
41837;SDS011;27511;52.042;5.178;2022-07-06T09:28:54;0.35;;;0.30;;
41837;SDS011;27511;52.042;5.178;2022-07-06T09:31:21;1.08;;;0.30;;
41837;SDS011;27511;52.042;5.178;2022-07-06T09:33:56;1.15;;;0.30;;
41837;SDS011;27511;52.042;5.178;2022-07-06T09:36:41;1.13;;;0.38;;
41837;SDS011;27511;52.042;5.178;2022-07-06T09:39:14;0.32;;;0.30;;
41837;SDS011;27511;52.042;5.178;2022-07-06T09:41:40;2.72;;;0.38;;
41837;SDS011;27511;52.042;5.178;2022-07-06T09:44:06;0.77;;;0.38;;
41837;SDS011;27511;52.042;5.178;2022-07-06T09:46:39;0.20;;;0.20;;
41837;SDS011;27511;52.042;5.178;2022-07-06T09:49:06;0.43;;;0.43;;
41837;SDS011;27511;52.042;5.178;2022-07-06T09:51:34;0.65;;;0.30;;
41837;SDS011;27511;52.042;5.178;2022-07-06T09:54:03;0.28;;;0.28;;
41837;SDS011;27511;52.042;5.178;2022-07-06T09:56:36;0.70;;;0.30;;
41837;SDS011;27511;52.042;5.178;2022-07-06T09:59:09;1.00;;;0.30;;
41837;SDS011;27511;52.042;5.178;2022-07-06T10:01:40;1.17;;;0.20;;
41837;SDS011;27511;52.042;5.178;2022-07-06T10:04:07;0.30;;;0.22;;
41837;SDS011;27511;52.042;5.178;2022-07-06T10:06:33;0.20;;;0.20;;
41837;SDS011;27511;52.042;5.178;2022-07-06T10:09:00;0.45;;;0.32;;
41837;SDS011;27511;52.042;5.178;2022-07-06T10:11:26;0.60;;;0.47;;
41837;SDS011;27511;52.042;5.178;2022-07-06T10:13:54;1.30;;;0.22;;
41837;SDS011;27511;52.042;5.178;2022-07-06T10:16:24;1.98;;;0.43;;
41837;SDS011;27511;52.042;5.178;2022-07-06T10:18:51;2.13;;;0.30;;
41837;SDS011;27511;52.042;5.178;2022-07-06T10:21:23;0.80;;;0.30;;
41837;SDS011;27511;52.042;5.178;2022-07-06T10:23:50;1.17;;;0.30;;
41837;SDS011;27511;52.042;5.178;2022-07-06T10:26:17;2.88;;;0.75;;
41837;SDS011;27511;52.042;5.178;2022-07-06T10:28:43;0.93;;;0.40;;
41837;SDS011;27511;52.042;5.178;2022-07-06T10:31:11;0.88;;;0.30;;
41837;SDS011;27511;52.042;5.178;2022-07-06T10:33:38;0.63;;;0.30;;
41837;SDS011;27511;52.042;5.178;2022-07-06T10:36:05;0.40;;;0.40;;
41837;SDS011;27511;52.042;5.178;2022-07-06T10:38:35;0.45;;;0.25;;
41837;SDS011;27511;52.042;5.178;2022-07-06T10:41:04;0.32;;;0.32;;
41837;SDS011;27511;52.042;5.178;2022-07-06T10:43:38;1.70;;;0.43;;
41837;SDS011;27511;52.042;5.178;2022-07-06T10:46:09;1.10;;;0.30;;
41837;SDS011;27511;52.042;5.178;2022-07-06T10:48:39;0.45;;;0.45;;
41837;SDS011;27511;52.042;5.178;2022-07-06T10:51:06;1.92;;;0.38;;
41837;SDS011;27511;52.042;5.178;2022-07-06T10:53:34;0.40;;;0.40;;
41837;SDS011;27511;52.042;5.178;2022-07-06T10:56:05;0.50;;;0.40;;
41837;SDS011;27511;52.042;5.178;2022-07-06T10:58:45;1.55;;;0.50;;
41837;SDS011;27511;52.042;5.178;2022-07-06T11:01:12;1.73;;;0.57;;
41837;SDS011;27511;52.042;5.178;2022-07-06T11:06:22;0.20;;;0.20;;
41837;SDS011;27511;52.042;5.178;2022-07-06T11:08:53;2.75;;;0.57;;
41837;SDS011;27511;52.042;5.178;2022-07-06T11:11:24;1.45;;;0.30;;
41837;SDS011;27511;52.042;5.178;2022-07-06T11:13:58;0.38;;;0.35;;
41837;SDS011;27511;52.042;5.178;2022-07-06T11:16:32;1.20;;;0.50;;
41837;SDS011;27511;52.042;5.178;2022-07-06T11:19:11;1.63;;;0.30;;
41837;SDS011;27511;52.042;5.178;2022-07-06T11:21:46;0.77;;;0.50;;
41837;SDS011;27511;52.042;5.178;2022-07-06T11:24:18;0.95;;;0.63;;
41837;SDS011;27511;52.042;5.178;2022-07-06T11:26:46;1.08;;;0.35;;
41837;SDS011;27511;52.042;5.178;2022-07-06T11:29:14;1.67;;;0.45;;
41837;SDS011;27511;52.042;5.178;2022-07-06T11:31:41;0.30;;;0.30;;
41837;SDS011;27511;52.042;5.178;2022-07-06T11:34:09;0.90;;;0.40;;
41837;SDS011;27511;52.042;5.178;2022-07-06T11:36:36;1.77;;;0.40;;
41837;SDS011;27511;52.042;5.178;2022-07-06T11:39:03;0.63;;;0.45;;
41837;SDS011;27511;52.042;5.178;2022-07-06T11:41:30;1.15;;;0.35;;
41837;SDS011;27511;52.042;5.178;2022-07-06T11:43:56;2.40;;;0.85;;
41837;SDS011;27511;52.042;5.178;2022-07-06T11:46:29;0.30;;;0.30;;
41837;SDS011;27511;52.042;5.178;2022-07-06T11:48:59;1.27;;;0.57;;
41837;SDS011;27511;52.042;5.178;2022-07-06T11:51:27;1.48;;;0.68;;
41837;SDS011;27511;52.042;5.178;2022-07-06T11:53:58;1.95;;;0.38;;
41837;SDS011;27511;52.042;5.178;2022-07-06T11:56:25;0.90;;;0.40;;
41837;SDS011;27511;52.042;5.178;2022-07-06T11:58:53;0.90;;;0.50;;
41837;SDS011;27511;52.042;5.178;2022-07-06T12:01:20;0.57;;;0.50;;
41837;SDS011;27511;52.042;5.178;2022-07-06T12:03:48;1.85;;;0.68;;
41837;SDS011;27511;52.042;5.178;2022-07-06T12:06:16;0.45;;;0.45;;
41837;SDS011;27511;52.042;5.178;2022-07-06T12:08:47;2.22;;;0.65;;
41837;SDS011;27511;52.042;5.178;2022-07-06T12:11:21;0.95;;;0.55;;
41837;SDS011;27511;52.042;5.178;2022-07-06T12:13:48;0.52;;;0.47;;
41837;SDS011;27511;52.042;5.178;2022-07-06T12:16:15;0.57;;;0.43;;
41837;SDS011;27511;52.042;5.178;2022-07-06T12:18:41;0.77;;;0.50;;
41837;SDS011;27511;52.042;5.178;2022-07-06T12:21:09;1.73;;;0.50;;
41837;SDS011;27511;52.042;5.178;2022-07-06T12:23:43;1.17;;;0.50;;
41837;SDS011;27511;52.042;5.178;2022-07-06T12:26:16;1.83;;;0.40;;
41837;SDS011;27511;52.042;5.178;2022-07-06T12:28:44;1.75;;;0.63;;
41837;SDS011;27511;52.042;5.178;2022-07-06T12:31:10;0.63;;;0.40;;
41837;SDS011;27511;52.042;5.178;2022-07-06T12:33:56;1.23;;;0.40;;
41837;SDS011;27511;52.042;5.178;2022-07-06T12:36:22;1.35;;;0.57;;
41837;SDS011;27511;52.042;5.178;2022-07-06T12:38:47;1.67;;;0.50;;
41837;SDS011;27511;52.042;5.178;2022-07-06T12:41:26;2.20;;;0.70;;
41837;SDS011;27511;52.042;5.178;2022-07-06T12:44:00;1.25;;;0.50;;
41837;SDS011;27511;52.042;5.178;2022-07-06T12:46:33;1.90;;;0.47;;
41837;SDS011;27511;52.042;5.178;2022-07-06T12:49:13;1.60;;;0.52;;
41837;SDS011;27511;52.042;5.178;2022-07-06T12:51:48;2.30;;;0.60;;
41837;SDS011;27511;52.042;5.178;2022-07-06T12:54:14;2.38;;;0.70;;
41837;SDS011;27511;52.042;5.178;2022-07-06T12:59:26;2.95;;;0.88;;
41837;SDS011;27511;52.042;5.178;2022-07-06T13:01:52;1.25;;;0.60;;
41837;SDS011;27511;52.042;5.178;2022-07-06T13:04:22;1.52;;;0.65;;
41837;SDS011;27511;52.042;5.178;2022-07-06T13:06:48;1.02;;;0.63;;
41837;SDS011;27511;52.042;5.178;2022-07-06T13:09:14;2.13;;;0.73;;
41837;SDS011;27511;52.042;5.178;2022-07-06T13:11:41;0.95;;;0.50;;
41837;SDS011;27511;52.042;5.178;2022-07-06T13:14:06;1.92;;;0.60;;
41837;SDS011;27511;52.042;5.178;2022-07-06T13:16:33;1.35;;;0.60;;
41837;SDS011;27511;52.042;5.178;2022-07-06T13:19:00;0.65;;;0.40;;
41837;SDS011;27511;52.042;5.178;2022-07-06T13:21:26;1.77;;;0.80;;
41837;SDS011;27511;52.042;5.178;2022-07-06T13:23:51;2.42;;;0.60;;
41837;SDS011;27511;52.042;5.178;2022-07-06T13:26:17;1.83;;;0.80;;
41837;SDS011;27511;52.042;5.178;2022-07-06T13:28:42;1.35;;;0.60;;
41837;SDS011;27511;52.042;5.178;2022-07-06T13:31:08;2.20;;;0.50;;
41837;SDS011;27511;52.042;5.178;2022-07-06T13:33:33;3.22;;;1.02;;
41837;SDS011;27511;52.042;5.178;2022-07-06T13:36:00;2.58;;;0.90;;
41837;SDS011;27511;52.042;5.178;2022-07-06T13:38:26;2.95;;;0.75;;
41837;SDS011;27511;52.042;5.178;2022-07-06T13:40:52;2.15;;;0.73;;
41837;SDS011;27511;52.042;5.178;2022-07-06T13:43:18;2.25;;;0.70;;
41837;SDS011;27511;52.042;5.178;2022-07-06T13:45:44;3.58;;;0.85;;
41837;SDS011;27511;52.042;5.178;2022-07-06T13:48:10;2.45;;;0.73;;
41837;SDS011;27511;52.042;5.178;2022-07-06T13:50:36;2.58;;;0.90;;
41837;SDS011;27511;52.042;5.178;2022-07-06T13:53:02;1.80;;;1.08;;
41837;SDS011;27511;52.042;5.178;2022-07-06T13:55:27;1.10;;;0.90;;
41837;SDS011;27511;52.042;5.178;2022-07-06T13:57:54;2.10;;;0.80;;
41837;SDS011;27511;52.042;5.178;2022-07-06T14:00:19;1.55;;;0.80;;
41837;SDS011;27511;52.042;5.178;2022-07-06T14:02:45;1.67;;;0.95;;
41837;SDS011;27511;52.042;5.178;2022-07-06T14:05:11;0.68;;;0.65;;
41837;SDS011;27511;52.042;5.178;2022-07-06T14:07:36;2.00;;;0.95;;
41837;SDS011;27511;52.042;5.178;2022-07-06T14:10:02;1.55;;;0.90;;
41837;SDS011;27511;52.042;5.178;2022-07-06T14:12:28;1.38;;;0.90;;
41837;SDS011;27511;52.042;5.178;2022-07-06T14:14:54;0.95;;;0.80;;
41837;SDS011;27511;52.042;5.178;2022-07-06T14:17:20;2.67;;;1.00;;
41837;SDS011;27511;52.042;5.178;2022-07-06T14:19:45;2.15;;;0.90;;
41837;SDS011;27511;52.042;5.178;2022-07-06T14:22:12;4.55;;;3.08;;
41837;SDS011;27511;52.042;5.178;2022-07-06T14:24:37;2.97;;;1.40;;
41837;SDS011;27511;52.042;5.178;2022-07-06T14:27:03;2.67;;;1.15;;
41837;SDS011;27511;52.042;5.178;2022-07-06T14:29:29;1.95;;;0.95;;
41837;SDS011;27511;52.042;5.178;2022-07-06T14:31:54;2.35;;;0.73;;
41837;SDS011;27511;52.042;5.178;2022-07-06T14:34:20;2.35;;;0.90;;
41837;SDS011;27511;52.042;5.178;2022-07-06T14:36:46;1.45;;;0.85;;
41837;SDS011;27511;52.042;5.178;2022-07-06T14:39:12;1.48;;;0.95;;
41837;SDS011;27511;52.042;5.178;2022-07-06T14:41:38;1.50;;;1.00;;
41837;SDS011;27511;52.042;5.178;2022-07-06T14:44:04;1.77;;;0.80;;
41837;SDS011;27511;52.042;5.178;2022-07-06T14:46:30;1.23;;;0.93;;
41837;SDS011;27511;52.042;5.178;2022-07-06T14:48:57;3.10;;;0.90;;
41837;SDS011;27511;52.042;5.178;2022-07-06T14:51:22;1.83;;;1.30;;
41837;SDS011;27511;52.042;5.178;2022-07-06T14:53:48;2.08;;;1.00;;